Time;durP1;ratioP1;P1;durP2;ratioP2;P2;SDS_P1;SDS_P2;PMS_P1;PMS_P2;Temp;Humidity;BMP_temperature;BMP_pressure;BME280_temperature;BME280_humidity;BME280_pressure;Samples;Min_cycle;Max_cycle;Signal;HPM_P1;HPM_P2
2023/07/07 00:02:56;;;;;;;11.40;5.50;;;25.80;55.60;;;;;;7615851;22;81646;-67
2023/07/07 00:05:56;;;;;;;14.00;6.22;;;25.80;55.70;;;;;;7643035;22;80422;-69
2023/07/07 00:08:57;;;;;;;6.82;5.07;;;25.70;55.80;;;;;;7642671;22;80386;-71
2023/07/07 00:11:57;;;;;;;11.48;6.00;;;25.70;56.00;;;;;;7642554;22;80302;-71
2023/07/07 00:14:58;;;;;;;9.82;6.18;;;25.70;55.90;;;;;;7643310;22;80448;-69
2023/07/07 00:17:58;;;;;;;6.97;4.88;;;25.70;55.80;;;;;;7641344;22;80417;-69
2023/07/07 00:20:59;;;;;;;9.10;5.55;;;25.70;55.80;;;;;;7642302;22;80198;-69
2023/07/07 00:24:00;;;;;;;6.80;4.72;;;25.70;55.50;;;;;;7643012;22;80523;-68
2023/07/07 00:27:00;;;;;;;11.27;5.70;;;25.70;55.90;;;;;;7641865;22;80649;-68
2023/07/07 00:30:02;;;;;;;11.30;6.07;;;25.70;55.90;;;;;;7616008;22;83480;-67
2023/07/07 00:33:03;;;;;;;8.98;5.32;;;25.70;55.80;;;;;;7642179;22;80614;-66
2023/07/07 00:36:03;;;;;;;8.13;5.30;;;25.70;55.90;;;;;;7615101;22;81729;-70
2023/07/07 00:39:04;;;;;;;8.70;5.80;;;25.70;55.80;;;;;;7616269;22;82876;-69
2023/07/07 00:42:05;;;;;;;17.70;5.22;;;25.70;56.00;;;;;;7615277;22;83349;-68
2023/07/07 00:45:05;;;;;;;15.02;5.68;;;25.70;55.90;;;;;;7616147;22;83152;-70
2023/07/07 00:48:05;;;;;;;10.40;5.97;;;25.70;56.00;;;;;;7616109;22;83467;-67
2023/07/07 00:51:06;;;;;;;7.50;4.97;;;25.70;55.90;;;;;;7615189;22;84626;-68
2023/07/07 00:54:07;;;;;;;7.32;5.30;;;25.70;55.90;;;;;;7615654;22;81769;-61
2023/07/07 00:57:07;;;;;;;8.15;5.47;;;25.70;55.70;;;;;;7612224;22;81593;-60
2023/07/07 01:00:08;;;;;;;7.90;5.18;;;25.70;55.70;;;;;;7611995;22;83389;-61
2023/07/07 01:03:08;;;;;;;9.20;5.32;;;25.70;55.70;;;;;;7638816;22;80359;-61
2023/07/07 01:06:09;;;;;;;8.68;5.85;;;25.70;55.70;;;;;;7611873;22;82894;-61
2023/07/07 01:09:09;;;;;;;10.35;5.80;;;25.70;55.70;;;;;;7639137;22;80409;-61
2023/07/07 01:12:10;;;;;;;10.63;5.78;;;25.70;55.70;;;;;;7614074;22;81550;-66
2023/07/07 01:15:10;;;;;;;7.30;5.45;;;25.70;55.70;;;;;;7642417;22;80864;-65
2023/07/07 01:18:11;;;;;;;12.15;5.88;;;25.70;55.70;;;;;;7642970;22;80079;-67
2023/07/07 01:21:12;;;;;;;9.32;5.63;;;25.70;55.90;;;;;;7614629;22;82217;-68
2023/07/07 01:24:18;;;;;;;11.68;5.75;;;25.70;55.80;;;;;;7642619;22;80613;-67
2023/07/07 01:27:18;;;;;;;9.48;5.80;;;25.70;55.90;;;;;;7642048;22;80649;-67
2023/07/07 01:30:19;;;;;;;12.32;5.65;;;25.70;55.80;;;;;;7642819;22;81632;-67
2023/07/07 01:33:20;;;;;;;10.00;5.00;;;25.70;55.80;;;;;;7642090;22;79999;-68
2023/07/07 01:36:20;;;;;;;8.65;5.38;;;25.60;55.70;;;;;;7642772;22;80960;-67
2023/07/07 01:39:21;;;;;;;8.15;5.10;;;25.60;55.60;;;;;;7642089;22;80297;-66
2023/07/07 01:42:21;;;;;;;8.35;5.45;;;25.60;55.60;;;;;;7642214;22;80650;-65
2023/07/07 01:45:22;;;;;;;7.45;5.13;;;25.60;55.60;;;;;;7641761;22;80366;-65
2023/07/07 01:48:23;;;;;;;8.70;5.43;;;25.60;55.60;;;;;;7641813;22;80231;-66
2023/07/07 01:51:23;;;;;;;9.35;5.00;;;25.60;55.60;;;;;;7642177;22;80927;-67
2023/07/07 01:54:24;;;;;;;7.63;5.13;;;25.60;55.60;;;;;;7642263;22;80369;-70
2023/07/07 01:57:24;;;;;;;8.73;5.75;;;25.60;55.50;;;;;;7614869;22;83426;-70
2023/07/07 02:00:25;;;;;;;10.05;5.70;;;25.60;55.40;;;;;;7610115;22;83439;-68
2023/07/07 02:03:25;;;;;;;9.80;5.53;;;25.60;55.30;;;;;;7642088;22;80415;-68
2023/07/07 02:06:26;;;;;;;7.60;5.28;;;25.60;55.10;;;;;;7639264;22;80470;-67
2023/07/07 02:09:26;;;;;;;8.05;4.78;;;25.60;55.20;;;;;;7641471;22;80881;-65
2023/07/07 02:12:27;;;;;;;8.95;6.00;;;25.60;55.50;;;;;;7641811;22;80443;-67
2023/07/07 02:15:27;;;;;;;8.73;5.40;;;25.60;55.40;;;;;;7641395;22;80360;-69
2023/07/07 02:18:29;;;;;;;9.40;5.20;;;25.60;55.10;;;;;;7613992;22;83419;-67
2023/07/07 02:21:29;;;;;;;8.90;5.55;;;25.60;55.00;;;;;;7642104;22;80244;-68
2023/07/07 02:24:30;;;;;;;10.35;5.63;;;25.60;55.00;;;;;;7615181;22;80552;-69
2023/07/07 02:27:30;;;;;;;7.03;5.03;;;25.60;55.00;;;;;;7615068;22;81357;-69
2023/07/07 02:30:31;;;;;;;7.13;5.25;;;25.60;54.90;;;;;;7641538;22;81434;-68
2023/07/07 02:33:32;;;;;;;6.35;4.63;;;25.60;54.80;;;;;;7614312;22;83273;-69
2023/07/07 02:36:36;;;;;;;8.93;5.97;;;25.60;54.80;;;;;;7616896;22;82037;-69
2023/07/07 02:39:37;;;;;;;7.40;5.03;;;25.60;54.80;;;;;;7616678;22;82241;-72
2023/07/07 02:42:37;;;;;;;7.35;5.05;;;25.60;54.70;;;;;;7643146;22;80430;-72
2023/07/07 02:45:40;;;;;;;8.35;5.22;;;25.60;54.70;;;;;;7645251;22;80355;-75
2023/07/07 02:48:41;;;;;;;11.35;5.88;;;25.50;54.70;;;;;;7644386;22;80492;-76
2023/07/07 02:51:41;;;;;;;8.20;5.35;;;25.50;54.60;;;;;;7616828;22;82590;-73
2023/07/07 02:54:42;;;;;;;12.73;5.40;;;25.50;54.80;;;;;;7641174;22;80388;-70
2023/07/07 02:57:42;;;;;;;8.27;5.32;;;25.50;54.80;;;;;;7643179;22;80429;-68
2023/07/07 03:00:43;;;;;;;9.13;5.22;;;25.50;54.80;;;;;;7643451;22;80263;-67
2023/07/07 03:03:43;;;;;;;9.20;5.18;;;25.50;54.80;;;;;;7616231;22;82994;-61
2023/07/07 03:06:44;;;;;;;7.63;5.15;;;25.50;54.70;;;;;;7642561;22;80602;-61
2023/07/07 03:09:46;;;;;;;8.80;5.35;;;25.50;54.60;;;;;;7615395;22;80475;-61
2023/07/07 03:12:46;;;;;;;8.68;5.38;;;25.50;54.60;;;;;;7615139;22;81577;-62
2023/07/07 03:15:47;;;;;;;7.00;5.10;;;25.50;54.60;;;;;;7615862;22;81428;-63
2023/07/07 03:18:57;;;;;;;9.20;4.93;;;25.50;54.60;;;;;;7615450;22;81553;-63
2023/07/07 03:21:59;;;;;;;11.50;5.85;;;25.50;54.70;;;;;;7615987;22;82333;-64
2023/07/07 03:25:09;;;;;;;10.60;6.43;;;25.50;54.60;;;;;;7614855;22;87325;-64
2023/07/07 03:28:15;;;;;;;9.32;5.10;;;25.50;54.50;;;;;;7616255;22;83243;-64
2023/07/07 03:31:18;;;;;;;9.25;5.53;;;25.50;54.60;;;;;;7616231;22;83191;-64
2023/07/07 03:34:22;;;;;;;8.13;5.72;;;25.50;54.60;;;;;;7616097;22;80295;-64
2023/07/07 03:37:22;;;;;;;8.70;4.93;;;25.50;54.60;;;;;;7643049;22;80436;-61
2023/07/07 03:40:23;;;;;;;10.50;5.63;;;25.50;54.60;;;;;;7615928;22;83295;-61
2023/07/07 03:43:24;;;;;;;8.02;5.38;;;25.50;54.80;;;;;;7616074;22;82152;-61
2023/07/07 03:46:25;;;;;;;9.30;5.00;;;25.50;54.80;;;;;;7614316;22;81736;-62
2023/07/07 03:49:25;;;;;;;9.82;5.85;;;25.50;55.50;;;;;;7615791;22;83844;-61
2023/07/07 03:52:26;;;;;;;11.30;5.60;;;25.50;54.90;;;;;;7613778;22;82740;-62
2023/07/07 03:55:27;;;;;;;11.10;6.30;;;25.50;55.00;;;;;;7614981;22;82324;-63
2023/07/07 03:58:27;;;;;;;12.60;5.93;;;25.50;55.00;;;;;;7616578;22;83250;-66
2023/07/07 04:01:28;;;;;;;10.50;6.05;;;25.50;55.00;;;;;;7642083;22;80303;-66
2023/07/07 04:04:29;;;;;;;9.88;6.72;;;25.50;55.10;;;;;;7614258;22;82962;-66
2023/07/07 04:07:29;;;;;;;10.65;6.25;;;25.50;55.20;;;;;;7640120;22;81055;-65
2023/07/07 04:10:30;;;;;;;9.55;5.70;;;25.50;55.40;;;;;;7641875;22;80547;-71
2023/07/07 04:13:30;;;;;;;10.98;6.05;;;25.50;55.60;;;;;;7614773;22;83737;-68
2023/07/07 04:16:31;;;;;;;13.30;6.65;;;25.50;55.60;;;;;;7612569;22;82784;-73
2023/07/07 04:19:31;;;;;;;12.07;6.53;;;25.50;55.70;;;;;;7642310;22;81710;-71
2023/07/07 04:22:32;;;;;;;10.05;6.03;;;25.50;55.60;;;;;;7616269;22;83844;-69
2023/07/07 04:25:33;;;;;;;10.85;6.45;;;25.50;55.70;;;;;;7642833;22;80533;-66
2023/07/07 04:28:35;;;;;;;11.40;6.22;;;25.50;55.80;;;;;;7639709;22;80817;-63
2023/07/07 04:31:36;;;;;;;8.30;5.88;;;25.50;55.70;;;;;;7641872;22;80254;-66
2023/07/07 04:34:36;;;;;;;8.65;5.90;;;25.60;55.80;;;;;;7642997;22;80533;-66
2023/07/07 04:37:37;;;;;;;8.45;5.78;;;25.60;55.80;;;;;;7641568;22;80421;-66
2023/07/07 04:40:37;;;;;;;8.88;5.85;;;25.60;55.90;;;;;;7642715;22;80278;-65
2023/07/07 04:43:38;;;;;;;9.40;6.38;;;25.60;56.20;;;;;;7642733;22;80151;-63
2023/07/07 04:46:38;;;;;;;9.13;5.60;;;25.50;56.20;;;;;;7641495;22;80455;-67
2023/07/07 04:49:39;;;;;;;13.25;6.68;;;25.60;56.30;;;;;;7643490;22;81011;-68
2023/07/07 04:52:39;;;;;;;9.85;6.00;;;25.50;56.10;;;;;;7641887;22;80582;-64
2023/07/07 04:55:40;;;;;;;13.70;6.25;;;25.50;56.20;;;;;;7641478;22;80526;-67
2023/07/07 04:58:40;;;;;;;8.73;5.97;;;25.50;56.40;;;;;;7638905;22;81064;-64
2023/07/07 05:01:41;;;;;;;10.02;6.13;;;25.50;56.60;;;;;;7643191;22;80354;-70
2023/07/07 05:04:41;;;;;;;9.07;5.45;;;25.60;57.00;;;;;;7640456;22;81166;-62
2023/07/07 05:07:42;;;;;;;13.68;8.27;;;25.60;56.90;;;;;;7641485;22;81169;-62
2023/07/07 05:10:42;;;;;;;14.82;7.70;;;25.70;56.90;;;;;;7643025;22;80949;-65
2023/07/07 05:13:43;;;;;;;14.43;9.30;;;25.80;56.30;;;;;;7643295;22;80632;-64
2023/07/07 05:16:43;;;;;;;16.13;8.50;;;25.80;55.90;;;;;;7642724;22;80362;-64
2023/07/07 05:19:44;;;;;;;11.25;7.72;;;25.80;56.20;;;;;;7614849;22;80722;-65
2023/07/07 05:22:44;;;;;;;12.98;7.72;;;25.90;56.50;;;;;;7637433;22;81542;-63
2023/07/07 05:25:45;;;;;;;14.52;7.43;;;25.80;56.40;;;;;;7614694;22;83439;-61
2023/07/07 05:28:45;;;;;;;13.57;6.15;;;25.80;56.40;;;;;;7642152;22;80390;-61
2023/07/07 05:31:46;;;;;;;10.60;6.13;;;25.80;56.50;;;;;;7640866;22;81206;-58
2023/07/07 05:34:47;;;;;;;12.05;6.30;;;25.90;56.50;;;;;;7637149;22;81432;-58
2023/07/07 05:37:47;;;;;;;11.60;6.22;;;25.80;56.50;;;;;;7635481;22;80391;-53
2023/07/07 05:40:48;;;;;;;9.10;4.88;;;25.90;56.40;;;;;;7641406;22;80676;-56
2023/07/07 05:43:49;;;;;;;9.18;6.10;;;25.90;56.10;;;;;;7640974;22;80840;-57
2023/07/07 05:46:50;;;;;;;8.68;5.93;;;25.90;56.10;;;;;;7638489;22;80443;-58
2023/07/07 05:49:50;;;;;;;11.90;5.72;;;25.80;55.30;;;;;;7622436;22;80780;-55
2023/07/07 05:52:51;;;;;;;19.73;6.18;;;25.80;55.60;;;;;;7624477;22;80604;-57
2023/07/07 05:55:51;;;;;;;9.32;6.13;;;25.80;55.40;;;;;;7601846;22;81480;-55
2023/07/07 05:58:52;;;;;;;11.35;5.45;;;25.80;55.40;;;;;;7628536;22;81168;-57
2023/07/07 06:01:52;;;;;;;9.88;6.35;;;25.80;55.50;;;;;;7628633;22;82156;-56
2023/07/07 06:04:53;;;;;;;12.63;5.82;;;25.80;55.40;;;;;;7637789;22;81103;-58
2023/07/07 06:07:53;;;;;;;10.75;5.25;;;25.70;55.40;;;;;;7638914;22;80493;-57
2023/07/07 06:10:54;;;;;;;11.73;5.55;;;25.70;55.30;;;;;;7635479;22;80157;-56
2023/07/07 06:13:54;;;;;;;9.95;5.60;;;25.70;55.20;;;;;;7635050;22;80928;-57
2023/07/07 06:16:55;;;;;;;11.10;5.38;;;25.70;55.20;;;;;;7516781;22;82130;-58
2023/07/07 06:19:56;;;;;;;10.90;6.47;;;25.70;55.20;;;;;;7485809;22;82183;-58
2023/07/07 06:22:57;;;;;;;9.40;5.97;;;25.70;55.40;;;;;;7631402;22;82089;-58
2023/07/07 06:25:57;;;;;;;10.88;6.65;;;25.70;55.00;;;;;;7637976;22;80478;-56
2023/07/07 06:28:58;;;;;;;8.93;5.85;;;25.70;54.70;;;;;;7641555;22;80513;-56
2023/07/07 06:31:58;;;;;;;8.35;5.90;;;25.60;54.70;;;;;;7625641;22;80897;-57
2023/07/07 06:34:59;;;;;;;11.20;6.80;;;25.60;54.60;;;;;;7599255;22;81944;-57
2023/07/07 06:37:59;;;;;;;12.30;6.20;;;25.50;54.50;;;;;;7635746;22;80728;-57
2023/07/07 06:41:00;;;;;;;11.57;6.75;;;25.40;54.60;;;;;;7628747;22;80492;-57
2023/07/07 06:44:00;;;;;;;8.70;5.57;;;25.40;54.60;;;;;;7639701;22;84637;-60
2023/07/07 06:47:01;;;;;;;11.15;6.55;;;25.50;54.40;;;;;;7638171;22;80406;-63
2023/07/07 06:50:01;;;;;;;11.15;6.10;;;25.40;54.40;;;;;;7639385;22;80577;-64
2023/07/07 06:53:02;;;;;;;17.67;5.75;;;25.50;54.60;;;;;;7639570;22;80343;-63
2023/07/07 06:56:02;;;;;;;15.43;6.60;;;25.50;54.70;;;;;;7640682;22;80330;-63
2023/07/07 06:59:03;;;;;;;10.82;6.53;;;25.50;54.70;;;;;;7639569;22;81331;-65
2023/07/07 07:02:03;;;;;;;10.45;5.72;;;25.50;54.40;;;;;;7639194;22;80965;-61
2023/07/07 07:05:04;;;;;;;15.48;6.25;;;25.50;54.00;;;;;;7640006;22;80784;-61
2023/07/07 07:08:04;;;;;;;11.88;5.72;;;25.50;53.90;;;;;;7638840;22;80509;-62
2023/07/07 07:11:06;;;;;;;13.30;5.72;;;25.50;53.90;;;;;;7630814;22;81643;-61
2023/07/07 07:14:06;;;;;;;12.75;5.57;;;25.60;54.00;;;;;;7632985;22;81385;-60
2023/07/07 07:17:08;;;;;;;8.25;5.22;;;25.60;53.90;;;;;;7636005;22;80211;-61
2023/07/07 07:20:08;;;;;;;8.60;5.45;;;25.60;53.70;;;;;;7611661;22;81000;-61
2023/07/07 07:23:09;;;;;;;12.10;5.43;;;25.60;53.80;;;;;;7638658;22;80357;-62
2023/07/07 07:26:09;;;;;;;9.27;5.35;;;25.60;53.60;;;;;;7641749;22;80514;-61
2023/07/07 07:29:14;;;;;;;12.40;5.78;;;25.60;53.30;;;;;;7641829;22;80178;-61
2023/07/07 07:32:14;;;;;;;13.32;5.70;;;25.60;53.10;;;;;;7640704;22;80487;-62
2023/07/07 07:35:15;;;;;;;12.70;5.90;;;25.60;52.70;;;;;;7639895;22;80855;-62
2023/07/07 07:38:16;;;;;;;8.75;4.97;;;25.60;52.80;;;;;;7637207;22;81288;-62
2023/07/07 07:41:16;;;;;;;6.90;4.80;;;25.70;52.50;;;;;;7641562;22;81010;-62
2023/07/07 07:44:17;;;;;;;10.35;5.22;;;25.70;52.10;;;;;;7641433;22;80482;-62
2023/07/07 07:47:19;;;;;;;7.65;5.18;;;25.70;51.50;;;;;;7642215;22;80392;-62
2023/07/07 07:50:20;;;;;;;8.35;4.80;;;25.60;51.10;;;;;;7638917;22;80608;-62
2023/07/07 07:53:20;;;;;;;5.93;4.28;;;25.70;51.10;;;;;;7641619;22;80201;-61
2023/07/07 07:56:21;;;;;;;10.85;5.03;;;25.70;50.80;;;;;;7639905;22;80649;-58
2023/07/07 07:59:21;;;;;;;8.18;5.00;;;25.60;50.90;;;;;;7632560;22;80937;-61
2023/07/07 08:02:22;;;;;;;6.07;4.40;;;25.60;50.80;;;;;;7642014;22;80997;-61
2023/07/07 08:05:22;;;;;;;6.53;4.22;;;25.70;50.90;;;;;;7642893;22;80503;-58
2023/07/07 08:08:23;;;;;;;8.20;4.35;;;25.70;50.40;;;;;;7637959;22;81396;-57
2023/07/07 08:11:24;;;;;;;5.78;3.67;;;25.70;50.80;;;;;;7640391;22;80507;-58
2023/07/07 08:14:30;;;;;;;5.55;3.97;;;25.80;50.10;;;;;;7640337;22;80490;-59
2023/07/07 08:17:30;;;;;;;7.18;3.97;;;25.80;50.00;;;;;;7643343;22;80557;-60
2023/07/07 08:20:31;;;;;;;11.13;4.50;;;25.80;50.00;;;;;;7641745;22;80794;-58
2023/07/07 08:23:31;;;;;;;6.68;3.90;;;25.80;50.00;;;;;;7642004;22;80476;-58
2023/07/07 08:26:32;;;;;;;10.55;3.78;;;25.90;50.20;;;;;;7642253;22;81347;-59
2023/07/07 08:29:32;;;;;;;7.97;4.45;;;25.80;48.80;;;;;;7640221;22;80214;-59
2023/07/07 08:32:33;;;;;;;9.82;3.67;;;25.80;48.90;;;;;;7645024;22;80514;-59
2023/07/07 08:35:33;;;;;;;7.72;3.65;;;25.70;47.30;;;;;;7644208;22;80569;-60
2023/07/07 08:38:34;;;;;;;7.50;3.58;;;25.70;47.90;;;;;;7638286;22;81089;-59
2023/07/07 08:41:34;;;;;;;7.22;3.65;;;25.60;46.90;;;;;;7640399;22;80174;-58
2023/07/07 08:44:35;;;;;;;10.90;3.60;;;25.70;47.70;;;;;;7644747;22;80349;-58
2023/07/07 08:47:35;;;;;;;10.30;3.55;;;25.80;46.90;;;;;;7643955;22;80328;-58
2023/07/07 08:50:36;;;;;;;10.88;3.53;;;25.80;47.90;;;;;;7642338;22;82340;-60
2023/07/07 08:53:36;;;;;;;8.15;4.00;;;25.90;47.90;;;;;;7641157;22;80233;-59
2023/07/07 08:56:37;;;;;;;5.93;3.15;;;25.90;47.60;;;;;;7628783;22;80912;-58
2023/07/07 08:59:37;;;;;;;9.15;3.58;;;25.90;48.10;;;;;;7641919;22;81092;-58
2023/07/07 09:02:38;;;;;;;7.78;3.30;;;25.90;48.60;;;;;;7614245;22;81750;-58
2023/07/07 09:05:38;;;;;;;13.00;3.63;;;26.00;47.80;;;;;;7641218;22;81205;-58
2023/07/07 09:08:39;;;;;;;9.40;3.47;;;26.00;46.60;;;;;;7639692;22;80601;-59
2023/07/07 09:11:39;;;;;;;5.82;3.58;;;26.00;46.10;;;;;;7630392;22;80303;-57
2023/07/07 09:14:40;;;;;;;11.18;4.35;;;26.00;46.40;;;;;;7635977;22;80865;-57
2023/07/07 09:17:40;;;;;;;6.03;2.88;;;26.00;46.50;;;;;;7640500;22;80445;-59
2023/07/07 09:20:41;;;;;;;7.47;3.72;;;26.00;46.50;;;;;;7641551;22;80898;-58
2023/07/07 09:23:41;;;;;;;8.45;3.58;;;26.10;46.80;;;;;;7640613;22;80295;-58
2023/07/07 09:26:42;;;;;;;5.38;3.30;;;26.00;47.00;;;;;;7640884;22;81628;-57
2023/07/07 09:29:43;;;;;;;10.20;3.25;;;26.10;47.00;;;;;;7641124;22;80870;-57
2023/07/07 09:32:43;;;;;;;6.35;3.20;;;26.10;46.80;;;;;;7639908;22;80490;-59
2023/07/07 09:35:44;;;;;;;8.63;3.58;;;26.10;48.00;;;;;;7613173;22;81680;-57
2023/07/07 09:38:44;;;;;;;13.20;3.72;;;26.20;47.50;;;;;;7640258;22;80363;-58
2023/07/07 09:41:45;;;;;;;8.68;3.30;;;26.10;46.20;;;;;;7640600;22;80482;-57
2023/07/07 09:44:45;;;;;;;9.40;3.67;;;26.10;46.50;;;;;;7639600;22;80804;-57
2023/07/07 09:47:46;;;;;;;7.93;3.92;;;26.20;46.50;;;;;;7641306;22;79993;-59
2023/07/07 09:50:47;;;;;;;6.13;3.90;;;26.20;47.00;;;;;;7640818;22;80366;-58
2023/07/07 09:53:47;;;;;;;7.18;3.70;;;26.10;46.60;;;;;;7641783;22;81296;-58
2023/07/07 09:56:48;;;;;;;7.20;3.13;;;26.10;46.30;;;;;;7641460;22;80285;-58
2023/07/07 09:59:49;;;;;;;7.82;3.72;;;26.10;46.20;;;;;;7642116;22;80734;-59
2023/07/07 10:02:50;;;;;;;5.28;2.65;;;26.10;46.40;;;;;;7614203;22;83541;-58
2023/07/07 10:05:50;;;;;;;6.28;3.28;;;26.10;46.10;;;;;;7642240;22;80292;-59
2023/07/07 10:08:51;;;;;;;6.38;2.85;;;26.10;46.30;;;;;;7642506;22;81883;-59
2023/07/07 10:11:51;;;;;;;8.40;3.28;;;26.10;46.50;;;;;;7642639;22;80437;-59
2023/07/07 10:14:52;;;;;;;8.85;3.67;;;26.00;46.50;;;;;;7640472;22;80138;-58
2023/07/07 10:17:52;;;;;;;6.05;3.10;;;26.10;46.60;;;;;;7642510;22;80826;-59
2023/07/07 10:20:53;;;;;;;9.27;3.58;;;26.00;46.30;;;;;;7642186;22;80750;-59
2023/07/07 10:23:53;;;;;;;7.47;3.67;;;26.10;46.80;;;;;;7640596;22;80093;-59
2023/07/07 10:26:54;;;;;;;5.45;2.92;;;26.10;46.50;;;;;;7641928;22;80415;-59
2023/07/07 10:29:54;;;;;;;7.15;3.10;;;26.00;46.10;;;;;;7642330;22;80226;-59
2023/07/07 10:32:55;;;;;;;6.30;3.00;;;26.00;46.40;;;;;;7641535;22;80415;-59
2023/07/07 10:35:55;;;;;;;6.90;3.05;;;26.00;46.00;;;;;;7642138;22;80656;-59
2023/07/07 10:38:56;;;;;;;7.20;3.00;;;26.00;46.00;;;;;;7640409;22;80402;-59
2023/07/07 10:41:56;;;;;;;4.03;2.40;;;26.10;46.20;;;;;;7639837;22;80318;-64
2023/07/07 10:44:57;;;;;;;6.88;2.75;;;26.20;46.70;;;;;;7641743;22;79976;-65
2023/07/07 10:47:58;;;;;;;6.35;2.83;;;26.30;46.60;;;;;;7640304;22;80766;-63
2023/07/07 10:50:59;;;;;;;7.38;2.97;;;26.30;46.50;;;;;;7642368;22;80573;-63
2023/07/07 10:53:59;;;;;;;3.47;2.28;;;26.40;46.60;;;;;;7629401;22;80485;-64
2023/07/07 10:57:00;;;;;;;4.22;2.75;;;26.20;44.80;;;;;;7640123;22;80824;-61
2023/07/07 11:00:00;;;;;;;4.50;2.83;;;26.20;44.40;;;;;;7639962;22;80914;-62
2023/07/07 11:03:01;;;;;;;4.25;2.78;;;26.20;45.10;;;;;;7640784;22;80636;-64
2023/07/07 11:06:01;;;;;;;16.83;3.40;;;26.10;45.60;;;;;;7640479;22;80634;-62
2023/07/07 11:09:02;;;;;;;5.35;2.72;;;26.10;46.10;;;;;;7641389;22;80360;-63
2023/07/07 11:12:05;;;;;;;7.07;3.00;;;26.10;46.00;;;;;;7642026;22;80241;-64
2023/07/07 11:15:06;;;;;;;8.75;2.80;;;26.10;45.70;;;;;;7640100;22;80645;-64
2023/07/07 11:18:07;;;;;;;8.32;2.97;;;26.20;46.20;;;;;;7640329;22;80458;-64
2023/07/07 11:21:07;;;;;;;4.22;2.70;;;26.10;45.60;;;;;;7642263;22;80885;-64
2023/07/07 11:24:08;;;;;;;6.25;2.85;;;26.10;45.80;;;;;;7641761;22;80317;-64
2023/07/07 11:27:08;;;;;;;5.43;2.78;;;26.20;46.10;;;;;;7642063;22;80940;-64
2023/07/07 11:30:10;;;;;;;5.00;2.80;;;26.20;45.90;;;;;;7642477;22;80575;-58
2023/07/07 11:33:11;;;;;;;6.38;2.60;;;26.20;45.30;;;;;;7641333;22;80735;-61
2023/07/07 11:36:11;;;;;;;4.25;2.22;;;26.20;44.10;;;;;;7642445;22;80975;-61
2023/07/07 11:39:12;;;;;;;3.47;2.08;;;26.20;43.30;;;;;;7616787;22;80759;-62
2023/07/07 11:42:12;;;;;;;6.95;2.40;;;26.20;43.50;;;;;;7643505;22;80325;-60
2023/07/07 11:45:13;;;;;;;7.40;2.35;;;26.20;43.20;;;;;;7616473;22;82085;-62
2023/07/07 11:48:13;;;;;;;4.82;2.20;;;26.20;43.20;;;;;;7643475;22;80250;-60
2023/07/07 11:51:14;;;;;;;2.88;1.95;;;26.20;43.00;;;;;;7643272;22;80090;-63
2023/07/07 11:54:15;;;;;;;4.47;1.85;;;26.30;42.70;;;;;;7643617;22;80295;-61
2023/07/07 11:57:15;;;;;;;5.13;2.28;;;26.20;42.50;;;;;;7643652;22;80374;-61
2023/07/07 12:00:16;;;;;;;3.03;2.13;;;26.20;41.90;;;;;;7644135;22;81206;-60
2023/07/07 12:03:18;;;;;;;6.68;2.40;;;26.30;42.80;;;;;;7643912;22;80574;-61
2023/07/07 12:06:18;;;;;;;2.75;2.10;;;26.20;42.60;;;;;;7641494;22;81467;-60
2023/07/07 12:09:19;;;;;;;2.72;1.90;;;26.20;42.30;;;;;;7641650;22;80540;-61
2023/07/07 12:12:19;;;;;;;5.82;2.20;;;26.20;42.20;;;;;;7643434;22;80728;-61
2023/07/07 12:15:20;;;;;;;6.75;2.35;;;26.20;42.00;;;;;;7616529;22;82008;-61
2023/07/07 12:18:20;;;;;;;6.95;1.75;;;26.30;42.20;;;;;;7642555;22;87528;-61
2023/07/07 12:21:21;;;;;;;9.25;2.92;;;26.30;41.90;;;;;;7643942;22;80686;-61
2023/07/07 12:24:21;;;;;;;7.03;1.73;;;26.30;41.70;;;;;;7643267;22;80526;-61
2023/07/07 12:27:22;;;;;;;3.03;2.20;;;26.30;41.70;;;;;;7643048;22;80363;-61
2023/07/07 12:30:22;;;;;;;2.53;2.10;;;26.30;42.00;;;;;;7642790;22;80122;-61
2023/07/07 12:33:23;;;;;;;3.10;2.13;;;26.30;41.20;;;;;;7642931;22;80998;-62
2023/07/07 12:36:23;;;;;;;4.40;2.53;;;26.40;41.20;;;;;;7642881;22;80493;-62
2023/07/07 12:39:24;;;;;;;5.00;2.60;;;26.30;41.20;;;;;;7642636;22;80417;-61
2023/07/07 12:42:24;;;;;;;4.32;2.10;;;26.30;41.90;;;;;;7643949;22;80781;-61
2023/07/07 12:45:25;;;;;;;6.03;2.72;;;26.30;42.40;;;;;;7642943;22;80931;-62
2023/07/07 12:48:26;;;;;;;5.80;2.42;;;26.30;42.50;;;;;;7642297;22;80181;-60
2023/07/07 12:51:27;;;;;;;5.88;2.22;;;26.30;42.50;;;;;;7642841;22;80236;-61
2023/07/07 12:54:27;;;;;;;3.95;2.08;;;26.30;42.50;;;;;;7642619;22;81365;-60
2023/07/07 12:57:28;;;;;;;2.83;2.42;;;26.40;43.00;;;;;;7643305;22;81098;-60
2023/07/07 13:00:28;;;;;;;3.78;1.98;;;26.30;42.10;;;;;;7642612;22;80306;-60
2023/07/07 13:03:29;;;;;;;6.18;2.20;;;26.40;42.40;;;;;;7642945;22;80253;-61
2023/07/07 13:06:30;;;;;;;4.50;2.05;;;26.30;42.20;;;;;;7643115;22;80980;-61
2023/07/07 13:09:30;;;;;;;4.50;2.08;;;26.40;42.30;;;;;;7634616;22;81143;-62
2023/07/07 13:12:31;;;;;;;2.97;2.17;;;26.40;42.00;;;;;;7645518;22;80617;-61
2023/07/07 13:15:31;;;;;;;4.22;2.10;;;26.40;41.60;;;;;;7646729;22;80293;-62
2023/07/07 13:18:32;;;;;;;2.83;2.00;;;26.40;42.10;;;;;;7644592;22;80559;-61
2023/07/07 13:21:32;;;;;;;3.58;2.25;;;26.40;42.00;;;;;;7645484;22;80647;-61
2023/07/07 13:24:33;;;;;;;4.05;2.13;;;26.40;41.90;;;;;;7641505;22;81341;-62
2023/07/07 13:27:33;;;;;;;4.97;2.10;;;26.40;42.20;;;;;;7645303;22;80145;-62
2023/07/07 13:30:34;;;;;;;11.00;2.70;;;26.50;42.50;;;;;;7643973;22;80756;-62
2023/07/07 13:33:35;;;;;;;3.35;1.60;;;26.50;42.10;;;;;;7645754;22;80473;-62
2023/07/07 13:36:35;;;;;;;6.45;2.25;;;26.50;41.60;;;;;;7644241;22;80315;-61
2023/07/07 13:39:35;;;;;;;4.82;2.53;;;26.40;41.30;;;;;;7640869;22;80494;-61
2023/07/07 13:42:36;;;;;;;4.18;2.25;;;26.40;41.20;;;;;;7645211;22;80256;-61
2023/07/07 13:45:37;;;;;;;4.07;2.17;;;26.40;41.50;;;;;;7646199;22;81003;-57
2023/07/07 13:48:37;;;;;;;3.20;2.25;;;26.40;41.50;;;;;;7645356;22;80822;-57
2023/07/07 13:51:38;;;;;;;2.55;2.17;;;26.40;41.70;;;;;;7618243;22;82760;-59
2023/07/07 13:54:38;;;;;;;4.70;2.28;;;26.40;41.60;;;;;;7641513;22;81387;-58
2023/07/07 13:57:39;;;;;;;4.93;2.03;;;26.50;41.70;;;;;;7645213;22;80287;-57
2023/07/07 14:00:39;;;;;;;4.53;2.38;;;26.50;41.90;;;;;;7644380;22;80875;-56
2023/07/07 14:03:40;;;;;;;3.10;2.10;;;26.50;41.70;;;;;;7644686;22;80107;-63
2023/07/07 14:06:40;;;;;;;2.95;1.85;;;26.50;41.60;;;;;;7645042;22;80376;-62
2023/07/07 14:09:41;;;;;;;4.60;2.55;;;26.40;41.10;;;;;;7640680;22;80239;-64
2023/07/07 14:12:42;;;;;;;3.28;2.15;;;26.40;40.80;;;;;;7645577;22;80596;-63
2023/07/07 14:15:42;;;;;;;2.92;2.05;;;26.40;41.40;;;;;;7644629;22;80042;-64
2023/07/07 14:18:43;;;;;;;3.65;2.10;;;26.40;41.20;;;;;;7645197;22;80830;-64
2023/07/07 14:21:43;;;;;;;2.10;1.90;;;26.40;41.10;;;;;;7640697;22;80996;-58
2023/07/07 14:24:43;;;;;;;3.67;2.47;;;26.30;40.60;;;;;;7644192;22;80808;-59
2023/07/07 14:27:44;;;;;;;8.82;2.17;;;26.30;40.90;;;;;;7643923;22;81238;-57
2023/07/07 14:30:44;;;;;;;3.45;1.98;;;26.40;40.90;;;;;;7643596;22;80376;-58
2023/07/07 14:33:45;;;;;;;3.05;1.60;;;26.30;40.80;;;;;;7639604;22;80450;-58
2023/07/07 14:36:47;;;;;;;3.20;2.28;;;26.30;40.10;;;;;;7646113;22;87130;-59
2023/07/07 14:39:50;;;;;;;2.95;1.95;;;26.30;40.20;;;;;;7645744;22;80025;-58
2023/07/07 14:42:50;;;;;;;2.60;1.83;;;26.30;40.70;;;;;;7646740;22;80937;-57
2023/07/07 14:45:51;;;;;;;4.28;2.28;;;26.30;40.90;;;;;;7645682;22;81266;-57
2023/07/07 14:48:51;;;;;;;4.40;1.98;;;26.30;40.70;;;;;;7647172;22;80403;-59
2023/07/07 14:51:52;;;;;;;2.08;1.80;;;26.30;40.70;;;;;;7645708;22;80739;-57
2023/07/07 14:54:52;;;;;;;5.22;1.63;;;26.30;40.80;;;;;;7645199;22;80809;-58
2023/07/07 14:57:53;;;;;;;7.75;2.30;;;26.30;41.30;;;;;;7638664;22;80883;-57
2023/07/07 15:00:53;;;;;;;4.30;2.00;;;26.30;41.20;;;;;;7640650;22;80271;-57
2023/07/07 15:03:54;;;;;;;6.40;2.40;;;26.30;41.50;;;;;;7643874;22;82839;-57
2023/07/07 15:06:54;;;;;;;2.58;1.80;;;26.20;41.10;;;;;;7643704;22;80741;-59
2023/07/07 15:09:55;;;;;;;3.40;2.00;;;26.30;41.00;;;;;;7641712;22;81078;-57
2023/07/07 15:12:55;;;;;;;4.20;2.58;;;26.30;40.90;;;;;;7643826;22;87925;-57
2023/07/07 15:15:56;;;;;;;3.72;1.90;;;26.30;40.70;;;;;;7641119;22;81195;-57
2023/07/07 15:18:57;;;;;;;3.05;1.88;;;26.20;40.00;;;;;;7644171;22;80567;-57
2023/07/07 15:21:58;;;;;;;4.85;1.98;;;26.20;39.80;;;;;;7641798;22;80475;-56
2023/07/07 15:24:59;;;;;;;3.03;1.88;;;26.20;39.90;;;;;;7642616;22;81504;-57
2023/07/07 15:27:59;;;;;;;2.80;2.05;;;26.20;40.30;;;;;;7643529;22;80685;-55
2023/07/07 15:31:00;;;;;;;4.20;2.00;;;26.20;40.40;;;;;;7639247;22;80668;-56
2023/07/07 15:34:00;;;;;;;6.30;1.95;;;26.20;40.60;;;;;;7599368;22;82078;-55
2023/07/07 15:37:01;;;;;;;5.47;2.78;;;26.20;40.90;;;;;;7638968;22;80786;-57